Flight Track Log - Related Links

Times and Time Zones

All times are in EDT time to prevent confusion due to time zone crossing. See the CPT7773 flight status page for this flight to view local times or setup timezone preferences in your user account.

Time Position Orientation Groundspeed Altitude Reporting Facility
EDT Latitude Longitude Course Direction KTS MPH feet Rate Location/Type
Mon 08:12:04 PM 44.5253 -108.9331 121° Southeast 173 199 6,500  Level Salt Lake Center
Mon 08:13:06 PM 44.5208 -108.8661 95° East 147 169 7,400 774 Climbing Salt Lake Center
Mon 08:14:08 PM 44.5172 -108.8089 95° East 147 169 8,100 629 Climbing Salt Lake Center
Mon 08:15:10 PM 44.4925 -108.7636 127° Southeast 150 173 8,700 634 Climbing Salt Lake Center
Mon 08:16:11 PM 44.4653 -108.7231 133° Southeast 147 169 9,400 683 Climbing Salt Lake Center
Mon 08:17:00 PM 44.4082 -108.7636 121° Southeast  Level FlightAware Approximate
Mon 08:17:13 PM 44.4397 -108.6825 131° Southeast 144 166 10,100  Level Salt Lake Center
Mon 08:18:15 PM 44.4147 -108.6453 133° Southeast 139 160 10,800 439 Climbing Salt Lake Center
Mon 08:19:16 PM 44.3892 -108.6053 132° Southeast 137 158 11,000 98 Climbing Salt Lake Center
Mon 08:20:18 PM 44.3517 -108.5500 133° Southeast 148 170 11,000  Level Salt Lake Center
Mon 08:21:20 PM 44.3189 -108.5000 132° Southeast 161 185 11,000  Level Salt Lake Center
Mon 08:22:22 PM 44.2875 -108.4492 131° Southeast 168 193 11,000 49 Level Salt Lake Center
Mon 08:23:23 PM 44.2561 -108.4000 132° Southeast 170 196 11,100  Climbing Salt Lake Center
Mon 08:24:25 PM 44.2231 -108.3503 133° Southeast 172 198 11,000 -48 Descending Salt Lake Center
Mon 08:25:27 PM 44.1917 -108.3028 133° Southeast 171 197 11,000  Level Salt Lake Center
Mon 08:26:29 PM 44.1550 -108.2444 131° Southeast 169 194 11,000 49 Level Salt Lake Center
Mon 08:27:30 PM 44.1242 -108.1975 132° Southeast 167 192 11,100 49 Climbing Salt Lake Center
Mon 08:28:32 PM 44.0925 -108.1497 133° Southeast 167 192 11,100  Level Salt Lake Center
Mon 08:29:34 PM 44.0597 -108.1003 133° Southeast 170 196 11,100 -48 Level Salt Lake Center
Mon 08:30:36 PM 44.0264 -108.0503 135° Southeast 173 199 11,000 -49 Descending Salt Lake Center
Mon 08:31:00 PM 44.0202 -108.0461 135° Southeast  Level FlightAware Approximate
Mon 08:31:37 PM 43.9944 -108.0017 132° Southeast 173 199 11,000  Level Salt Lake Center
Mon 08:32:39 PM 43.9575 -107.9428 131° Southeast 171 197 11,100 48 Climbing Salt Lake Center
Mon 08:33:41 PM 43.9306 -107.8906 126° Southeast 168 193 11,100  Level Salt Lake Center
Mon 08:35:44 PM 43.8758 -107.7797 124° Southeast 172 198 11,100  Level Salt Lake Center
Mon 08:36:46 PM 43.8469 -107.7244 126° Southeast 175 201 11,100  Level Salt Lake Center
Mon 08:37:48 PM 43.8181 -107.6697 126° Southeast 176 203 11,100 -49 Level Salt Lake Center
Mon 08:38:49 PM 43.7897 -107.6144 125° Southeast 177 204 11,000  Descending Salt Lake Center
Mon 08:39:51 PM 43.7561 -107.5483 125° Southeast 176 203 11,100  Climbing Salt Lake Center
Mon 08:40:53 PM 43.7278 -107.4939 126° Southeast 176 203 11,000 -98 Descending Salt Lake Center
Mon 08:41:54 PM 43.6994 -107.4383 125° Southeast 176 203 10,900 -49 Descending Salt Lake Center
Mon 08:42:56 PM 43.6725 -107.3836 124° Southeast 175 201 10,900  Level Salt Lake Center
Mon 08:43:58 PM 43.6458 -107.3306 125° Southeast 173 199 10,900  Level Salt Lake Center
Mon 08:44:59 PM 43.6161 -107.2767 127° Southeast 173 199 10,900  Level Salt Lake Center
Mon 08:46:01 PM 43.5858 -107.2231 128° Southeast 176 203 10,900  Level Salt Lake Center
Mon 08:47:03 PM 43.5500 -107.1544 126° Southeast 180 207 10,900  Level Salt Lake Center
Mon 08:48:04 PM 43.5211 -107.0964 124° Southeast 184 212 10,900  Level Salt Lake Center
Mon 08:49:06 PM 43.4908 -107.0364 125° Southeast 189 217 10,900  Level Salt Lake Center
Mon 08:50:08 PM 43.4608 -106.9803 126° Southeast 185 213 10,900 49 Level Salt Lake Center
Mon 08:51:09 PM 43.4278 -106.9206 127° Southeast 191 220 11,000 49 Climbing Salt Lake Center
Mon 08:52:11 PM 43.3939 -106.8581 127° Southeast 185 213 11,000 -145 Level Salt Lake Center
Mon 08:53:13 PM 43.3522 -106.8311 155° Southeast 171 197 10,700 -488 Descending Salt Lake Center
Mon 08:54:14 PM 43.3136 -106.7964 147° Southeast 173 199 10,000 -532 Descending Salt Lake Center
Mon 08:55:17 PM 43.2719 -106.7589 147° Southeast 164 189 9,600 -195 Descending Salt Lake Center
Mon 08:56:17 PM 43.2372 -106.7264 146° Southeast 159 183 9,600 -246 Level Salt Lake Center
Mon 08:57:19 PM 43.1956 -106.6950 151° Southeast 154 177 9,100 -435 Descending Salt Lake Center
Mon 08:58:21 PM 43.1650 -106.6636 143° Southeast 148 170 8,700 -439 Descending Salt Lake Center
Mon 08:59:22 PM 43.1247 -106.6267 146° Southeast 150 173 8,200 -587 Descending Salt Lake Center
Mon 09:00:44 PM 43.0742 -106.5853 149° Southeast 158 182 7,300 -429 Descending Denver Center
Mon 09:02:10 PM 43.0211 -106.5397 148° Southeast 211 243 7,000 -243 Descending Denver Center
Mon 09:03:12 PM 42.9939 -106.5083 140° Southeast 141 162 6,700 -194 Descending Denver Center
Mon 09:04:14 PM 42.9650 -106.4731 138° Southeast 141 162 6,600 -97 Descending Denver Center

Login

Don't have an account? Register now (free) for customized features, flight alerts, and more!